N851TB LIBD-LICC
Flight info
| Callsign | N851TB |
|---|---|
| Flight time | 1h 5m |
| Altitude | 25000 |
| Route | TOPNO DCT BUMOK DCT PELEN Q789 UXUTA |
| Aircraft | TBM8/L-SDFGRWY/S |
Departure
| Time | 2026-04-27 19:06 |
|---|---|
| Airport | Bari Karol Wojtyła International Airport (LIBD) |
Arrival
| Time | 2026-04-27 20:11 |
|---|---|
| Airport | Catania-Fontanarossa Airport (LICC) |
| Time | Latitude | Longitude | Altitude | Speed | Heading |
|---|---|---|---|---|---|
| 2026-04-27 18:56 | 41.13715 | 16.76879 | 129 ft | 0 kts | 213° |
| 2026-04-27 19:02 | 41.13710 | 16.76867 | 128 ft | 5 kts | 282° |
| 2026-04-27 19:02 | 41.13763 | 16.76842 | 127 ft | 14 kts | 325° |
| 2026-04-27 19:02 | 41.13835 | 16.76750 | 124 ft | 17 kts | 309° |
| 2026-04-27 19:03 | 41.13820 | 16.76605 | 127 ft | 15 kts | 248° |
| 2026-04-27 19:03 | 41.13771 | 16.76448 | 129 ft | 22 kts | 249° |
| 2026-04-27 19:03 | 41.13718 | 16.76245 | 129 ft | 25 kts | 248° |
| 2026-04-27 19:03 | 41.13674 | 16.76094 | 129 ft | 26 kts | 249° |
| 2026-04-27 19:04 | 41.13591 | 16.75808 | 132 ft | 25 kts | 246° |
| 2026-04-27 19:04 | 41.13531 | 16.75593 | 133 ft | 26 kts | 250° |
| 2026-04-27 19:04 | 41.13464 | 16.75361 | 137 ft | 28 kts | 249° |
| 2026-04-27 19:04 | 41.13400 | 16.75129 | 141 ft | 22 kts | 250° |
| 2026-04-27 19:05 | 41.13344 | 16.74939 | 142 ft | 23 kts | 246° |
| 2026-04-27 19:05 | 41.13400 | 16.74760 | 140 ft | 21 kts | 311° |
| 2026-04-27 19:05 | 41.13472 | 16.74729 | 135 ft | 9 kts | 40° |
| 2026-04-27 19:05 | 41.13530 | 16.74917 | 133 ft | 47 kts | 68° |
| 2026-04-27 19:06 | 41.13710 | 16.75555 | 148 ft | 99 kts | 65° |
| 2026-04-27 19:06 | 41.13976 | 16.76497 | 374 ft | 119 kts | 71° |
| 2026-04-27 19:06 | 41.14245 | 16.77631 | 681 ft | 138 kts | 73° |
| 2026-04-27 19:06 | 41.14591 | 16.78881 | 1120 ft | 144 kts | 64° |
| 2026-04-27 19:07 | 41.15025 | 16.80086 | 1616 ft | 146 kts | 66° |
| 2026-04-27 19:07 | 41.15411 | 16.81335 | 2133 ft | 147 kts | 68° |
| 2026-04-27 19:07 | 41.15791 | 16.82614 | 2667 ft | 150 kts | 68° |
| 2026-04-27 19:07 | 41.16149 | 16.83913 | 3253 ft | 149 kts | 73° |
| 2026-04-27 19:08 | 41.16073 | 16.85248 | 3805 ft | 149 kts | 116° |
| 2026-04-27 19:08 | 41.15300 | 16.86127 | 4328 ft | 152 kts | 162° |
| 2026-04-27 19:08 | 41.14265 | 16.86022 | 4848 ft | 153 kts | 207° |
| 2026-04-27 19:08 | 41.13582 | 16.84994 | 5359 ft | 152 kts | 251° |
| 2026-04-27 19:09 | 41.13332 | 16.83648 | 5912 ft | 153 kts | 254° |
| 2026-04-27 19:09 | 41.13002 | 16.82283 | 6437 ft | 155 kts | 251° |
| 2026-04-27 19:09 | 41.12657 | 16.80923 | 6934 ft | 156 kts | 251° |
| 2026-04-27 19:09 | 41.12317 | 16.79550 | 7438 ft | 157 kts | 252° |
| 2026-04-27 19:10 | 41.11981 | 16.78183 | 7933 ft | 158 kts | 252° |
| 2026-04-27 19:10 | 41.11638 | 16.76785 | 8438 ft | 160 kts | 253° |
| 2026-04-27 19:10 | 41.11293 | 16.75380 | 8953 ft | 161 kts | 253° |
| 2026-04-27 19:10 | 41.11062 | 16.74443 | 9287 ft | 162 kts | 253° |
| 2026-04-27 19:11 | 41.10592 | 16.72536 | 9976 ft | 163 kts | 253° |
| 2026-04-27 19:11 | 41.10237 | 16.71101 | 10418 ft | 165 kts | 253° |
| 2026-04-27 19:11 | 41.09878 | 16.69649 | 10871 ft | 166 kts | 253° |
| 2026-04-27 19:11 | 41.09516 | 16.68184 | 11321 ft | 168 kts | 253° |
| 2026-04-27 19:12 | 41.09150 | 16.66702 | 11773 ft | 170 kts | 253° |
| 2026-04-27 19:12 | 41.08780 | 16.65211 | 12224 ft | 171 kts | 252° |
| 2026-04-27 19:12 | 41.08406 | 16.63704 | 12677 ft | 173 kts | 252° |
| 2026-04-27 19:12 | 41.08029 | 16.62183 | 13129 ft | 174 kts | 252° |
| 2026-04-27 19:13 | 41.07648 | 16.60648 | 13569 ft | 177 kts | 252° |
| 2026-04-27 19:13 | 41.07261 | 16.59089 | 13995 ft | 179 kts | 252° |
| 2026-04-27 19:13 | 41.06872 | 16.57519 | 14445 ft | 179 kts | 253° |
| 2026-04-27 19:13 | 41.06482 | 16.55952 | 14860 ft | 179 kts | 252° |
| 2026-04-27 19:14 | 41.06091 | 16.54383 | 15275 ft | 180 kts | 253° |
| 2026-04-27 19:14 | 41.05704 | 16.52829 | 15672 ft | 180 kts | 253° |
| 2026-04-27 19:14 | 41.05311 | 16.51246 | 16077 ft | 181 kts | 253° |
| 2026-04-27 19:14 | 41.04915 | 16.49661 | 16480 ft | 182 kts | 254° |
| 2026-04-27 19:15 | 41.04518 | 16.48070 | 16879 ft | 182 kts | 254° |
| 2026-04-27 19:15 | 41.04119 | 16.46471 | 17280 ft | 183 kts | 254° |
| 2026-04-27 19:15 | 41.03719 | 16.44870 | 17676 ft | 184 kts | 255° |
| 2026-04-27 19:15 | 41.03318 | 16.43265 | 18068 ft | 184 kts | 255° |
| 2026-04-27 19:16 | 41.02913 | 16.41646 | 18453 ft | 185 kts | 255° |
| 2026-04-27 19:16 | 41.02645 | 16.40576 | 18673 ft | 186 kts | 255° |
| 2026-04-27 19:16 | 41.02100 | 16.38397 | 19122 ft | 187 kts | 255° |
| 2026-04-27 19:16 | 41.01692 | 16.36773 | 19477 ft | 186 kts | 255° |
| 2026-04-27 19:17 | 41.01285 | 16.35150 | 19829 ft | 186 kts | 255° |
| 2026-04-27 19:17 | 41.00877 | 16.33521 | 20149 ft | 187 kts | 255° |
| 2026-04-27 19:17 | 41.00465 | 16.31882 | 20481 ft | 188 kts | 255° |
| 2026-04-27 19:17 | 41.00052 | 16.30235 | 20790 ft | 190 kts | 255° |
| 2026-04-27 19:18 | 40.99631 | 16.28552 | 21044 ft | 195 kts | 255° |
| 2026-04-27 19:18 | 40.99201 | 16.26828 | 21300 ft | 199 kts | 255° |
| 2026-04-27 19:18 | 40.98765 | 16.25092 | 21565 ft | 203 kts | 255° |
| 2026-04-27 19:18 | 40.98314 | 16.23298 | 21823 ft | 207 kts | 255° |
| 2026-04-27 19:19 | 40.97853 | 16.21475 | 22090 ft | 211 kts | 255° |
| 2026-04-27 19:19 | 40.97385 | 16.19624 | 22344 ft | 213 kts | 255° |
| 2026-04-27 19:19 | 40.96910 | 16.17750 | 22611 ft | 216 kts | 255° |
| 2026-04-27 19:19 | 40.96430 | 16.15854 | 22878 ft | 218 kts | 255° |
| 2026-04-27 19:20 | 40.95944 | 16.13941 | 23155 ft | 220 kts | 255° |
| 2026-04-27 19:20 | 40.95453 | 16.12013 | 23431 ft | 222 kts | 254° |
| 2026-04-27 19:20 | 40.94792 | 16.10146 | 23708 ft | 227 kts | 242° |
| 2026-04-27 19:20 | 40.93893 | 16.08412 | 23939 ft | 229 kts | 238° |
| 2026-04-27 19:21 | 40.92961 | 16.06697 | 24170 ft | 230 kts | 238° |
| 2026-04-27 19:21 | 40.92026 | 16.04983 | 24398 ft | 231 kts | 238° |
| 2026-04-27 19:21 | 40.91085 | 16.03259 | 24634 ft | 231 kts | 238° |
| 2026-04-27 19:21 | 40.90142 | 16.01527 | 24879 ft | 232 kts | 238° |
| 2026-04-27 19:22 | 40.89198 | 15.99792 | 25064 ft | 235 kts | 238° |
| 2026-04-27 19:22 | 40.88231 | 15.98000 | 25086 ft | 245 kts | 238° |
| 2026-04-27 19:22 | 40.87225 | 15.96129 | 25106 ft | 254 kts | 238° |
| 2026-04-27 19:22 | 40.86202 | 15.94227 | 25112 ft | 261 kts | 238° |
| 2026-04-27 19:23 | 40.85134 | 15.92251 | 25118 ft | 267 kts | 238° |
| 2026-04-27 19:23 | 40.84040 | 15.90232 | 25119 ft | 273 kts | 238° |
| 2026-04-27 19:23 | 40.82912 | 15.88148 | 25121 ft | 277 kts | 238° |
| 2026-04-27 19:23 | 40.81781 | 15.86063 | 25124 ft | 281 kts | 238° |
| 2026-04-27 19:24 | 40.80654 | 15.83987 | 25121 ft | 284 kts | 238° |
| 2026-04-27 19:24 | 40.79496 | 15.81854 | 25123 ft | 286 kts | 238° |
| 2026-04-27 19:24 | 40.78330 | 15.79709 | 25128 ft | 289 kts | 238° |
| 2026-04-27 19:24 | 40.77157 | 15.77552 | 25121 ft | 290 kts | 238° |
| 2026-04-27 19:25 | 40.75977 | 15.75386 | 25125 ft | 291 kts | 238° |
| 2026-04-27 19:25 | 40.74794 | 15.73213 | 25118 ft | 292 kts | 237° |
| 2026-04-27 19:25 | 40.73611 | 15.71041 | 25126 ft | 293 kts | 237° |
| 2026-04-27 19:25 | 40.72402 | 15.68876 | 25121 ft | 295 kts | 234° |
| 2026-04-27 19:26 | 40.70894 | 15.67013 | 25123 ft | 300 kts | 219° |
| 2026-04-27 19:26 | 40.69046 | 15.65702 | 25126 ft | 305 kts | 205° |
| 2026-04-27 19:26 | 40.67065 | 15.64700 | 25133 ft | 305 kts | 205° |
| 2026-04-27 19:26 | 40.65095 | 15.63667 | 25131 ft | 305 kts | 206° |
| 2026-04-27 19:27 | 40.63126 | 15.62624 | 25126 ft | 305 kts | 205° |
| 2026-04-27 19:27 | 40.61158 | 15.61580 | 25122 ft | 305 kts | 206° |
| 2026-04-27 19:27 | 40.59191 | 15.60538 | 25121 ft | 305 kts | 206° |
| 2026-04-27 19:27 | 40.57225 | 15.59498 | 25125 ft | 304 kts | 205° |
| 2026-04-27 19:28 | 40.55259 | 15.58461 | 25132 ft | 305 kts | 205° |
| 2026-04-27 19:28 | 40.53293 | 15.57423 | 25130 ft | 305 kts | 206° |
| 2026-04-27 19:28 | 40.51326 | 15.56388 | 25132 ft | 304 kts | 205° |
| 2026-04-27 19:28 | 40.49360 | 15.55354 | 25124 ft | 304 kts | 206° |
| 2026-04-27 19:29 | 40.47400 | 15.54321 | 25129 ft | 304 kts | 206° |
| 2026-04-27 19:29 | 40.45431 | 15.53284 | 25131 ft | 304 kts | 206° |
| 2026-04-27 19:29 | 40.43492 | 15.52265 | 25128 ft | 304 kts | 206° |
| 2026-04-27 19:29 | 40.41522 | 15.51234 | 25127 ft | 305 kts | 205° |
| 2026-04-27 19:30 | 40.39545 | 15.50199 | 25129 ft | 306 kts | 206° |
| 2026-04-27 19:30 | 40.37564 | 15.49159 | 25120 ft | 307 kts | 205° |
| 2026-04-27 19:30 | 40.35581 | 15.48116 | 25119 ft | 307 kts | 206° |
| 2026-04-27 19:30 | 40.33595 | 15.47073 | 25131 ft | 308 kts | 205° |
| 2026-04-27 19:31 | 40.31605 | 15.46032 | 25130 ft | 308 kts | 205° |
| 2026-04-27 19:31 | 40.29606 | 15.44986 | 25132 ft | 309 kts | 205° |
| 2026-04-27 19:31 | 40.27613 | 15.43943 | 25132 ft | 309 kts | 205° |
| 2026-04-27 19:31 | 40.25609 | 15.42894 | 25133 ft | 310 kts | 205° |
| 2026-04-27 19:32 | 40.23607 | 15.41848 | 25138 ft | 310 kts | 205° |
| 2026-04-27 19:32 | 40.21603 | 15.40800 | 25131 ft | 310 kts | 205° |
| 2026-04-27 19:32 | 40.19597 | 15.39754 | 25127 ft | 310 kts | 205° |
| 2026-04-27 19:32 | 40.17593 | 15.38712 | 25117 ft | 310 kts | 205° |
| 2026-04-27 19:33 | 40.15592 | 15.37668 | 25116 ft | 309 kts | 205° |
| 2026-04-27 19:33 | 40.14266 | 15.36977 | 25116 ft | 309 kts | 205° |
| 2026-04-27 19:33 | 40.11588 | 15.35583 | 25118 ft | 309 kts | 205° |
| 2026-04-27 19:33 | 40.09615 | 15.34556 | 25114 ft | 309 kts | 205° |
| 2026-04-27 19:34 | 40.07617 | 15.33517 | 25107 ft | 309 kts | 205° |
| 2026-04-27 19:34 | 40.05596 | 15.32466 | 25106 ft | 308 kts | 205° |
| 2026-04-27 19:34 | 40.03629 | 15.31446 | 25115 ft | 308 kts | 205° |
| 2026-04-27 19:34 | 40.01633 | 15.30411 | 25119 ft | 308 kts | 205° |
| 2026-04-27 19:35 | 39.99641 | 15.29378 | 25118 ft | 308 kts | 205° |
| 2026-04-27 19:35 | 39.97652 | 15.28348 | 25117 ft | 308 kts | 205° |
| 2026-04-27 19:35 | 39.95655 | 15.27313 | 25118 ft | 308 kts | 205° |
| 2026-04-27 19:35 | 39.93661 | 15.26281 | 25119 ft | 308 kts | 205° |
| 2026-04-27 19:36 | 39.91667 | 15.25251 | 25122 ft | 308 kts | 205° |
| 2026-04-27 19:36 | 39.89672 | 15.24220 | 25119 ft | 308 kts | 204° |
| 2026-04-27 19:36 | 39.87678 | 15.23189 | 25119 ft | 308 kts | 204° |
| 2026-04-27 19:36 | 39.85684 | 15.22158 | 25121 ft | 308 kts | 204° |
| 2026-04-27 19:37 | 39.83689 | 15.21129 | 25122 ft | 308 kts | 204° |
| 2026-04-27 19:37 | 39.81695 | 15.20100 | 25122 ft | 308 kts | 204° |
| 2026-04-27 19:37 | 39.79695 | 15.19070 | 25122 ft | 308 kts | 204° |
| 2026-04-27 19:37 | 39.77704 | 15.18044 | 25122 ft | 308 kts | 204° |
| 2026-04-27 19:38 | 39.75708 | 15.17016 | 25119 ft | 309 kts | 204° |
| 2026-04-27 19:38 | 39.73712 | 15.15990 | 25120 ft | 309 kts | 204° |
| 2026-04-27 19:38 | 39.71737 | 15.14975 | 25120 ft | 309 kts | 204° |
| 2026-04-27 19:38 | 39.69739 | 15.13948 | 25120 ft | 309 kts | 204° |
| 2026-04-27 19:39 | 39.67741 | 15.12923 | 25123 ft | 309 kts | 204° |
| 2026-04-27 19:39 | 39.65742 | 15.11898 | 25123 ft | 309 kts | 204° |
| 2026-04-27 19:39 | 39.63743 | 15.10872 | 25123 ft | 309 kts | 204° |
| 2026-04-27 19:39 | 39.61743 | 15.09848 | 25123 ft | 309 kts | 204° |
| 2026-04-27 19:40 | 39.59743 | 15.08825 | 25123 ft | 309 kts | 204° |
| 2026-04-27 19:40 | 39.57743 | 15.07801 | 25123 ft | 309 kts | 204° |
| 2026-04-27 19:40 | 39.55740 | 15.06776 | 25123 ft | 309 kts | 204° |
| 2026-04-27 19:40 | 39.53744 | 15.05755 | 25123 ft | 309 kts | 204° |
| 2026-04-27 19:41 | 39.51743 | 15.04732 | 25126 ft | 309 kts | 204° |
| 2026-04-27 19:41 | 39.49736 | 15.03708 | 25126 ft | 309 kts | 204° |
| 2026-04-27 19:41 | 39.47739 | 15.02689 | 25127 ft | 309 kts | 204° |
| 2026-04-27 19:41 | 39.45737 | 15.01668 | 25128 ft | 309 kts | 204° |
| 2026-04-27 19:42 | 39.43734 | 15.00649 | 25126 ft | 309 kts | 204° |
| 2026-04-27 19:42 | 39.41731 | 14.99629 | 25126 ft | 309 kts | 204° |
| 2026-04-27 19:42 | 39.39728 | 14.98610 | 25126 ft | 309 kts | 204° |
| 2026-04-27 19:42 | 39.37724 | 14.97591 | 25126 ft | 309 kts | 204° |
| 2026-04-27 19:43 | 39.35720 | 14.96572 | 25126 ft | 310 kts | 204° |
| 2026-04-27 19:43 | 39.33711 | 14.95552 | 25126 ft | 310 kts | 204° |
| 2026-04-27 19:43 | 39.31711 | 14.94536 | 25126 ft | 310 kts | 204° |
| 2026-04-27 19:43 | 39.29706 | 14.93519 | 25126 ft | 310 kts | 204° |
| 2026-04-27 19:44 | 39.27700 | 14.92502 | 25127 ft | 310 kts | 204° |
| 2026-04-27 19:44 | 39.25695 | 14.91485 | 25125 ft | 310 kts | 204° |
| 2026-04-27 19:44 | 39.23690 | 14.90470 | 25124 ft | 310 kts | 204° |
| 2026-04-27 19:44 | 39.22365 | 14.89799 | 25125 ft | 310 kts | 204° |
| 2026-04-27 19:45 | 39.20355 | 14.88782 | 25125 ft | 310 kts | 204° |
| 2026-04-27 19:45 | 39.17699 | 14.87439 | 25126 ft | 310 kts | 204° |
| 2026-04-27 19:45 | 39.15692 | 14.86425 | 25126 ft | 310 kts | 204° |
| 2026-04-27 19:45 | 39.14338 | 14.85742 | 25126 ft | 310 kts | 204° |
| 2026-04-27 19:46 | 39.12330 | 14.84729 | 25129 ft | 310 kts | 204° |
| 2026-04-27 19:46 | 39.09671 | 14.83389 | 25129 ft | 310 kts | 204° |
| 2026-04-27 19:46 | 39.08312 | 14.82705 | 25129 ft | 310 kts | 204° |
| 2026-04-27 19:46 | 39.06325 | 14.81705 | 25125 ft | 310 kts | 204° |
| 2026-04-27 19:47 | 39.04290 | 14.80681 | 25129 ft | 310 kts | 204° |
| 2026-04-27 19:47 | 39.02286 | 14.79674 | 25128 ft | 310 kts | 204° |
| 2026-04-27 19:47 | 39.00300 | 14.78675 | 25129 ft | 310 kts | 204° |
| 2026-04-27 19:47 | 38.98291 | 14.77665 | 25129 ft | 310 kts | 204° |
| 2026-04-27 19:48 | 38.96256 | 14.76644 | 25126 ft | 310 kts | 204° |
| 2026-04-27 19:48 | 38.94273 | 14.75649 | 25127 ft | 310 kts | 204° |
| 2026-04-27 19:48 | 38.92269 | 14.74644 | 25126 ft | 310 kts | 204° |
| 2026-04-27 19:48 | 38.90259 | 14.73637 | 25126 ft | 310 kts | 204° |
| 2026-04-27 19:49 | 38.88250 | 14.72631 | 25126 ft | 310 kts | 204° |
| 2026-04-27 19:49 | 38.86241 | 14.71624 | 25123 ft | 310 kts | 203° |
| 2026-04-27 19:49 | 38.84232 | 14.70619 | 25124 ft | 310 kts | 203° |
| 2026-04-27 19:49 | 38.82225 | 14.69617 | 25125 ft | 310 kts | 203° |
| 2026-04-27 19:50 | 38.80218 | 14.68613 | 25128 ft | 309 kts | 203° |
| 2026-04-27 19:50 | 38.78207 | 14.67610 | 25126 ft | 309 kts | 203° |
| 2026-04-27 19:50 | 38.76205 | 14.66610 | 25126 ft | 309 kts | 203° |
| 2026-04-27 19:50 | 38.74194 | 14.65607 | 25126 ft | 309 kts | 203° |
| 2026-04-27 19:51 | 38.72187 | 14.64608 | 25118 ft | 309 kts | 203° |
| 2026-04-27 19:51 | 38.70182 | 14.63608 | 25125 ft | 309 kts | 203° |
| 2026-04-27 19:51 | 38.68176 | 14.62610 | 25127 ft | 309 kts | 203° |
| 2026-04-27 19:51 | 38.66171 | 14.61611 | 25127 ft | 309 kts | 203° |
| 2026-04-27 19:52 | 38.64166 | 14.60614 | 25124 ft | 309 kts | 203° |
| 2026-04-27 19:52 | 38.62162 | 14.59619 | 25125 ft | 309 kts | 203° |
| 2026-04-27 19:52 | 38.60103 | 14.58814 | 25127 ft | 311 kts | 192° |
| 2026-04-27 19:52 | 38.57936 | 14.58654 | 25082 ft | 315 kts | 179° |
| 2026-04-27 19:53 | 38.53492 | 14.59495 | 24602 ft | 329 kts | 171° |
| 2026-04-27 19:53 | 38.51241 | 14.59954 | 24374 ft | 333 kts | 173° |
| 2026-04-27 19:53 | 38.48933 | 14.60328 | 24144 ft | 336 kts | 174° |
| 2026-04-27 19:54 | 38.46612 | 14.60679 | 23910 ft | 337 kts | 174° |
| 2026-04-27 19:54 | 38.44277 | 14.61029 | 23681 ft | 338 kts | 174° |
| 2026-04-27 19:54 | 38.41943 | 14.61384 | 23414 ft | 338 kts | 174° |
| 2026-04-27 19:54 | 38.39609 | 14.61744 | 23134 ft | 338 kts | 174° |
| 2026-04-27 19:55 | 38.37275 | 14.62111 | 22863 ft | 338 kts | 174° |
| 2026-04-27 19:55 | 38.34943 | 14.62479 | 22599 ft | 338 kts | 174° |
| 2026-04-27 19:55 | 38.32614 | 14.62863 | 22331 ft | 338 kts | 172° |
| 2026-04-27 19:55 | 38.30344 | 14.63654 | 22067 ft | 340 kts | 159° |
| 2026-04-27 19:56 | 38.28267 | 14.65091 | 21800 ft | 341 kts | 146° |
| 2026-04-27 19:56 | 38.26465 | 14.67038 | 21545 ft | 341 kts | 137° |
| 2026-04-27 19:56 | 38.24758 | 14.69136 | 21288 ft | 340 kts | 140° |
| 2026-04-27 19:56 | 38.22916 | 14.71019 | 21036 ft | 340 kts | 143° |
| 2026-04-27 19:57 | 38.21038 | 14.72838 | 20786 ft | 339 kts | 144° |
| 2026-04-27 19:57 | 38.19158 | 14.74645 | 20535 ft | 338 kts | 144° |
| 2026-04-27 19:57 | 38.17282 | 14.76449 | 20290 ft | 338 kts | 144° |
| 2026-04-27 19:57 | 38.15410 | 14.78255 | 20044 ft | 338 kts | 144° |
| 2026-04-27 19:58 | 38.13542 | 14.80060 | 19802 ft | 337 kts | 144° |
| 2026-04-27 19:58 | 38.11677 | 14.81862 | 19568 ft | 336 kts | 144° |
| 2026-04-27 19:58 | 38.09815 | 14.83659 | 19338 ft | 336 kts | 144° |
| 2026-04-27 19:58 | 38.07978 | 14.85433 | 19112 ft | 335 kts | 144° |
| 2026-04-27 19:59 | 38.06124 | 14.87219 | 18871 ft | 334 kts | 144° |
| 2026-04-27 19:59 | 38.04274 | 14.89000 | 18636 ft | 333 kts | 144° |
| 2026-04-27 19:59 | 38.02423 | 14.90776 | 18401 ft | 332 kts | 144° |
| 2026-04-27 19:59 | 38.00507 | 14.92397 | 18130 ft | 331 kts | 151° |
| 2026-04-27 20:00 | 37.98493 | 14.93803 | 17817 ft | 331 kts | 153° |
| 2026-04-27 20:00 | 37.96454 | 14.95159 | 17426 ft | 331 kts | 154° |
| 2026-04-27 20:00 | 37.94378 | 14.96438 | 17043 ft | 331 kts | 159° |
| 2026-04-27 20:00 | 37.92217 | 14.97423 | 16660 ft | 330 kts | 163° |
| 2026-04-27 20:01 | 37.90041 | 14.98341 | 16285 ft | 329 kts | 163° |
| 2026-04-27 20:01 | 37.87867 | 14.99236 | 15910 ft | 327 kts | 164° |
| 2026-04-27 20:01 | 37.85754 | 15.00085 | 15549 ft | 319 kts | 164° |
| 2026-04-27 20:01 | 37.83662 | 15.00928 | 15190 ft | 313 kts | 164° |
| 2026-04-27 20:02 | 37.81605 | 15.01761 | 14834 ft | 309 kts | 164° |
| 2026-04-27 20:02 | 37.79572 | 15.02590 | 14483 ft | 305 kts | 164° |
| 2026-04-27 20:02 | 37.77557 | 15.03411 | 14119 ft | 303 kts | 164° |
| 2026-04-27 20:02 | 37.75556 | 15.04195 | 13822 ft | 297 kts | 169° |
| 2026-04-27 20:03 | 37.73561 | 15.04218 | 13671 ft | 282 kts | 199° |
| 2026-04-27 20:03 | 37.72006 | 15.02904 | 13618 ft | 266 kts | 234° |
| 2026-04-27 20:03 | 37.71185 | 15.00835 | 13295 ft | 266 kts | 251° |
| 2026-04-27 20:03 | 37.70467 | 14.98664 | 12902 ft | 272 kts | 239° |
| 2026-04-27 20:04 | 37.69002 | 14.97157 | 12530 ft | 281 kts | 204° |
| 2026-04-27 20:04 | 37.67067 | 14.96753 | 12158 ft | 283 kts | 187° |
| 2026-04-27 20:04 | 37.65098 | 14.96599 | 11787 ft | 283 kts | 185° |
| 2026-04-27 20:04 | 37.63130 | 14.96491 | 11423 ft | 282 kts | 185° |
| 2026-04-27 20:05 | 37.61189 | 14.96400 | 11069 ft | 269 kts | 185° |
| 2026-04-27 20:05 | 37.59392 | 14.96312 | 10585 ft | 250 kts | 184° |
| 2026-04-27 20:05 | 37.57688 | 14.96241 | 10108 ft | 239 kts | 184° |
| 2026-04-27 20:05 | 37.56153 | 14.96174 | 9578 ft | 202 kts | 184° |
| 2026-04-27 20:06 | 37.54821 | 14.96120 | 8943 ft | 184 kts | 184° |
| 2026-04-27 20:06 | 37.53576 | 14.96063 | 8296 ft | 175 kts | 183° |
| 2026-04-27 20:06 | 37.52378 | 14.95998 | 7669 ft | 170 kts | 184° |
| 2026-04-27 20:06 | 37.51212 | 14.95922 | 7055 ft | 166 kts | 184° |
| 2026-04-27 20:07 | 37.50098 | 14.95730 | 6482 ft | 162 kts | 193° |
| 2026-04-27 20:07 | 37.49054 | 14.95197 | 5858 ft | 160 kts | 206° |
| 2026-04-27 20:07 | 37.48087 | 14.94560 | 5326 ft | 155 kts | 209° |
| 2026-04-27 20:07 | 37.47162 | 14.93895 | 4848 ft | 150 kts | 200° |
| 2026-04-27 20:08 | 37.46226 | 14.94066 | 4500 ft | 136 kts | 136° |
| 2026-04-27 20:08 | 37.45844 | 14.95126 | 3967 ft | 134 kts | 101° |
| 2026-04-27 20:08 | 37.45750 | 14.96272 | 3445 ft | 129 kts | 91° |
| 2026-04-27 20:08 | 37.45808 | 14.97383 | 2937 ft | 127 kts | 83° |
| 2026-04-27 20:09 | 37.45913 | 14.98479 | 2461 ft | 124 kts | 83° |
| 2026-04-27 20:09 | 37.46005 | 14.99432 | 2133 ft | 99 kts | 83° |
| 2026-04-27 20:09 | 37.46098 | 15.00250 | 1779 ft | 90 kts | 84° |
| 2026-04-27 20:09 | 37.46174 | 15.01042 | 1445 ft | 90 kts | 83° |
| 2026-04-27 20:10 | 37.46256 | 15.01802 | 1154 ft | 86 kts | 83° |
| 2026-04-27 20:10 | 37.46312 | 15.02552 | 838 ft | 86 kts | 83° |
| 2026-04-27 20:10 | 37.46373 | 15.03286 | 539 ft | 83 kts | 80° |
| 2026-04-27 20:10 | 37.46453 | 15.04032 | 338 ft | 88 kts | 81° |
| 2026-04-27 20:11 | 37.46525 | 15.04777 | 189 ft | 83 kts | 82° |
| 2026-04-27 20:11 | 37.46582 | 15.05501 | 63 ft | 82 kts | 80° |
| 2026-04-27 20:11 | 37.46640 | 15.06175 | 30 ft | 66 kts | 83° |
| 2026-04-27 20:11 | 37.46668 | 15.06539 | 31 ft | 34 kts | 84° |
| 2026-04-27 20:12 | 37.46692 | 15.06811 | 31 ft | 24 kts | 85° |
| 2026-04-27 20:12 | 37.46712 | 15.06904 | 31 ft | 12 kts | 46° |
| 2026-04-27 20:12 | 37.46800 | 15.06901 | 28 ft | 15 kts | 339° |
| 2026-04-27 20:12 | 37.46869 | 15.06919 | 27 ft | 11 kts | 79° |
| 2026-04-27 20:13 | 37.46904 | 15.06946 | 26 ft | 7 kts | 23° |
| 2026-04-27 20:13 | 37.46934 | 15.06979 | 26 ft | 3 kts | 39° |
| 2026-04-27 20:13 | 37.46935 | 15.06979 | 26 ft | 0 kts | 38° |